Time;durP1;ratioP1;P1;durP2;ratioP2;P2;SDS_P1;SDS_P2;PMS_P1;PMS_P2;Temp;Humidity;BMP_temperature;BMP_pressure;BME280_temperature;BME280_humidity;BME280_pressure;Samples;Min_cycle;Max_cycle;Signal;HPM_P1;HPM_P2
2022/03/27 00:00:47;;;;;;;2.05;1.13;;;;;;;;;;5054514;28;20056;-69
2022/03/27 00:03:13;;;;;;;2.55;1.17;;;;;;;;;;5088900;28;20527;-69
2022/03/27 00:05:39;;;;;;;3.53;1.20;;;;;;;;;;5070267;28;20521;-69
2022/03/27 00:08:05;;;;;;;1.75;1.00;;;;;;;;;;5088980;28;20219;-69
2022/03/27 00:11:23;;;;;;;3.53;1.20;;;;;;;;;;5071061;28;20051;-69
2022/03/27 00:13:17;;;;;;;3.17;1.10;;;;;;;;;;5088620;28;20066;-69
2022/03/27 00:15:43;;;;;;;3.15;1.45;;;;;;;;;;5088676;28;20070;-69
2022/03/27 00:18:09;;;;;;;2.67;1.10;;;;;;;;;;5087995;28;20048;-69
2022/03/27 00:20:35;;;;;;;3.35;1.50;;;;;;;;;;5088566;28;20063;-69
2022/03/27 00:23:01;;;;;;;2.30;0.90;;;;;;;;;;5070080;28;20051;-69
2022/03/27 00:25:27;;;;;;;2.33;1.30;;;;;;;;;;5070175;28;20048;-69
2022/03/27 00:27:53;;;;;;;2.22;1.02;;;;;;;;;;5088441;28;20055;-69
2022/03/27 00:30:19;;;;;;;2.42;1.25;;;;;;;;;;5088656;28;20044;-69
2022/03/27 00:32:45;;;;;;;2.22;0.90;;;;;;;;;;5087981;28;20064;-69
2022/03/27 00:35:11;;;;;;;3.38;1.30;;;;;;;;;;5049868;28;20052;-69
2022/03/27 00:37:37;;;;;;;3.42;1.00;;;;;;;;;;5068015;28;20048;-69
2022/03/27 00:40:04;;;;;;;2.00;1.27;;;;;;;;;;5066408;28;20059;-69
2022/03/27 00:42:30;;;;;;;2.15;1.15;;;;;;;;;;5066769;28;20049;-68
2022/03/27 00:44:56;;;;;;;1.70;1.00;;;;;;;;;;5068256;28;20487;-69
2022/03/27 00:47:22;;;;;;;3.00;1.08;;;;;;;;;;5067424;28;20483;-69
2022/03/27 00:49:48;;;;;;;3.00;1.25;;;;;;;;;;5068045;28;20040;-69
2022/03/27 00:52:14;;;;;;;4.65;1.13;;;;;;;;;;5067517;28;20056;-69
2022/03/27 00:54:40;;;;;;;2.67;1.40;;;;;;;;;;5066520;28;20135;-69
2022/03/27 00:57:07;;;;;;;2.60;1.27;;;;;;;;;;5066015;28;20056;-69
2022/03/27 00:59:33;;;;;;;3.15;1.02;;;;;;;;;;5067486;28;20416;-69
2022/03/27 01:02:01;;;;;;;2.95;1.23;;;;;;;;;;5066583;28;20406;-69
2022/03/27 01:04:27;;;;;;;2.33;1.10;;;;;;;;;;5067853;28;20047;-69
2022/03/27 01:06:53;;;;;;;3.45;1.15;;;;;;;;;;5067666;28;20056;-69
2022/03/27 01:09:38;;;;;;;2.85;1.40;;;;;;;;;;5065684;28;20067;-69
2022/03/27 01:12:21;;;;;;;3.35;1.20;;;;;;;;;;5067427;28;20045;-69
2022/03/27 01:14:47;;;;;;;2.33;1.10;;;;;;;;;;5067385;28;20551;-69
2022/03/27 01:17:17;;;;;;;2.42;1.08;;;;;;;;;;5066387;28;20056;-69
2022/03/27 01:19:46;;;;;;;2.53;1.05;;;;;;;;;;5066988;28;20040;-69
2022/03/27 01:22:12;;;;;;;4.88;1.50;;;;;;;;;;5066661;28;20091;-69
2022/03/27 01:24:39;;;;;;;2.05;1.08;;;;;;;;;;5067664;28;20052;-69
2022/03/27 01:27:05;;;;;;;3.13;1.25;;;;;;;;;;5067340;28;20036;-69
2022/03/27 01:29:31;;;;;;;1.55;1.00;;;;;;;;;;5067681;28;20145;-69
2022/03/27 01:31:58;;;;;;;2.42;1.02;;;;;;;;;;5066138;28;20495;-69
2022/03/27 01:34:24;;;;;;;3.10;1.40;;;;;;;;;;5078330;28;20486;-69
2022/03/27 01:36:51;;;;;;;3.30;1.20;;;;;;;;;;5070108;28;20058;-71
2022/03/27 01:39:18;;;;;;;2.75;1.10;;;;;;;;;;5088344;28;20051;-70
2022/03/27 01:41:44;;;;;;;4.05;1.55;;;;;;;;;;5088073;28;20051;-70
2022/03/27 01:44:12;;;;;;;8.68;1.65;;;;;;;;;;5088178;28;20048;-72
2022/03/27 01:46:39;;;;;;;15.90;1.70;;;;;;;;;;5070224;28;20126;-69
2022/03/27 01:49:07;;;;;;;4.05;1.15;;;;;;;;;;5069989;28;20402;-69
2022/03/27 01:51:33;;;;;;;5.93;1.52;;;;;;;;;;5070281;28;20131;-68
2022/03/27 01:54:00;;;;;;;2.80;1.10;;;;;;;;;;5088112;28;20044;-69
2022/03/27 01:56:26;;;;;;;7.35;1.30;;;;;;;;;;5053018;28;20193;-70
2022/03/27 01:58:52;;;;;;;5.50;1.40;;;;;;;;;;5069969;28;20044;-70
2022/03/27 02:01:21;;;;;;;5.03;1.23;;;;;;;;;;5088151;28;20528;-70
2022/03/27 02:03:47;;;;;;;;;;;;;;;;;;5088698;28;20410;-70
2022/03/27 02:06:15;;;;;;;3.00;1.20;;;;;;;;;;5053600;28;19927;-69
2022/03/27 02:08:42;;;;;;;4.68;1.40;;;;;;;;;;5053079;28;20146;-69
2022/03/27 02:11:09;;;;;;;3.45;1.15;;;;;;;;;;5071911;28;20047;-69
2022/03/27 02:13:35;;;;;;;3.72;1.40;;;;;;;;;;5074419;28;20052;-69
2022/03/27 02:16:03;;;;;;;3.20;1.27;;;;;;;;;;5073728;28;20516;-69
2022/03/27 02:18:30;;;;;;;2.47;1.23;;;;;;;;;;5091751;28;20052;-69
2022/03/27 02:20:56;;;;;;;4.85;1.40;;;;;;;;;;5091743;28;20669;-70
2022/03/27 02:23:23;;;;;;;3.53;1.42;;;;;;;;;;5091838;28;20114;-70
2022/03/27 02:25:49;;;;;;;3.17;1.42;;;;;;;;;;5091616;28;20051;-69
2022/03/27 02:28:15;;;;;;;2.70;1.40;;;;;;;;;;5091655;28;20055;-70
2022/03/27 02:30:42;;;;;;;3.75;1.30;;;;;;;;;;5091357;28;20039;-69
2022/03/27 02:33:09;;;;;;;3.53;1.42;;;;;;;;;;5072916;28;20093;-69
2022/03/27 02:35:35;;;;;;;4.03;1.20;;;;;;;;;;5091920;28;20055;-70
2022/03/27 02:38:04;;;;;;;3.83;1.13;;;;;;;;;;5073032;28;20050;-69
2022/03/27 02:40:31;;;;;;;4.72;1.42;;;;;;;;;;5091360;28;20085;-70
2022/03/27 02:42:59;;;;;;;3.78;1.52;;;;;;;;;;5090730;28;20040;-70
2022/03/27 02:45:26;;;;;;;4.00;1.67;;;;;;;;;;5072346;28;20513;-70
2022/03/27 02:47:52;;;;;;;2.58;1.15;;;;;;;;;;5091061;28;20088;-69
2022/03/27 02:50:18;;;;;;;5.13;1.45;;;;;;;;;;5072768;28;20505;-69
2022/03/27 02:52:44;;;;;;;3.47;1.15;;;;;;;;;;5072576;28;20521;-69
2022/03/27 02:55:11;;;;;;;4.00;1.50;;;;;;;;;;5056389;28;20444;-69
2022/03/27 02:57:37;;;;;;;7.63;1.48;;;;;;;;;;5072178;28;20516;-70
2022/03/27 03:00:04;;;;;;;4.43;2.00;;;;;;;;;;5056052;28;20073;-70
2022/03/27 03:02:30;;;;;;;5.85;1.67;;;;;;;;;;5091442;28;20040;-70
2022/03/27 03:04:56;;;;;;;5.55;1.20;;;;;;;;;;5091155;28;20536;-69
2022/03/27 03:07:22;;;;;;;4.85;1.50;;;;;;;;;;5090956;28;20048;-68
2022/03/27 03:09:48;;;;;;;2.88;1.30;;;;;;;;;;5090804;28;20162;-68
2022/03/27 03:12:14;;;;;;;5.53;1.48;;;;;;;;;;5072229;28;20136;-68
2022/03/27 03:14:40;;;;;;;6.03;1.63;;;;;;;;;;5090958;28;20162;-71
2022/03/27 03:17:08;;;;;;;10.82;1.80;;;;;;;;;;5072603;28;20108;-70
2022/03/27 03:19:34;;;;;;;2.35;1.20;;;;;;;;;;5072709;28;20174;-70
2022/03/27 03:22:00;;;;;;;2.85;1.20;;;;;;;;;;5055902;28;20096;-70
2022/03/27 03:24:27;;;;;;;3.88;1.23;;;;;;;;;;5055492;28;20052;-70
2022/03/27 03:26:54;;;;;;;5.18;1.20;;;;;;;;;;5090809;28;20131;-69
2022/03/27 03:29:21;;;;;;;2.70;1.30;;;;;;;;;;5072174;28;20051;-69
2022/03/27 03:31:47;;;;;;;4.07;1.63;;;;;;;;;;5072174;28;20048;-69
2022/03/27 03:34:13;;;;;;;3.95;1.40;;;;;;;;;;5071503;28;20049;-69
2022/03/27 03:36:39;;;;;;;3.53;1.10;;;;;;;;;;5072330;28;20452;-70
2022/03/27 03:39:08;;;;;;;3.60;1.40;;;;;;;;;;5071445;28;20056;-70
2022/03/27 03:41:34;;;;;;;4.75;1.70;;;;;;;;;;5090171;28;20529;-70
2022/03/27 03:44:00;;;;;;;2.67;1.23;;;;;;;;;;5071748;28;20051;-70
2022/03/27 03:46:26;;;;;;;3.17;0.98;;;;;;;;;;5089687;28;20474;-70
2022/03/27 03:48:52;;;;;;;3.75;1.02;;;;;;;;;;5089506;28;20084;-70
2022/03/27 03:51:19;;;;;;;1.90;0.90;;;;;;;;;;5089820;28;20047;-70
2022/03/27 03:53:45;;;;;;;2.40;1.10;;;;;;;;;;5072030;28;20295;-69
2022/03/27 03:56:11;;;;;;;3.92;1.30;;;;;;;;;;5089815;28;20042;-70
2022/03/27 03:58:38;;;;;;;3.83;1.40;;;;;;;;;;5089819;28;20056;-70
2022/03/27 04:01:04;;;;;;;3.78;1.20;;;;;;;;;;5090051;28;20052;-70
2022/03/27 04:03:30;;;;;;;2.10;1.10;;;;;;;;;;5089847;28;20135;-71
2022/03/27 04:05:56;;;;;;;3.92;1.15;;;;;;;;;;5089906;28;20488;-71
2022/03/27 04:08:22;;;;;;;3.03;1.17;;;;;;;;;;5089622;28;20047;-71
2022/03/27 04:10:49;;;;;;;3.35;1.38;;;;;;;;;;5089032;28;20135;-70
2022/03/27 04:13:15;;;;;;;2.70;1.05;;;;;;;;;;5089660;28;20055;-71
2022/03/27 04:15:41;;;;;;;2.17;1.00;;;;;;;;;;5089736;28;20036;-72
2022/03/27 04:18:07;;;;;;;2.20;1.10;;;;;;;;;;5089494;28;20044;-72
2022/03/27 04:20:37;;;;;;;5.70;1.20;;;;;;;;;;5071202;28;20090;-72
2022/03/27 04:23:03;;;;;;;2.58;1.08;;;;;;;;;;5089325;28;20406;-72
2022/03/27 04:25:29;;;;;;;2.22;1.05;;;;;;;;;;5089118;28;20044;-72
2022/03/27 04:27:55;;;;;;;3.38;1.33;;;;;;;;;;5089454;28;20048;-72
2022/03/27 04:30:21;;;;;;;2.47;1.02;;;;;;;;;;5071070;28;20089;-72
2022/03/27 04:32:47;;;;;;;2.17;0.98;;;;;;;;;;5071061;28;20071;-72
2022/03/27 04:35:14;;;;;;;2.17;0.88;;;;;;;;;;5053663;28;20467;-73
2022/03/27 04:37:44;;;;;;;2.85;1.30;;;;;;;;;;5089195;28;20044;-72
2022/03/27 04:40:13;;;;;;;2.67;0.90;;;;;;;;;;5088587;28;20047;-72
2022/03/27 04:42:40;;;;;;;1.33;0.70;;;;;;;;;;5070505;28;20048;-72
2022/03/27 04:45:06;;;;;;;2.20;1.05;;;;;;;;;;5088422;28;20044;-71
2022/03/27 04:47:35;;;;;;;3.25;1.33;;;;;;;;;;5070354;28;20098;-75
2022/03/27 04:50:05;;;;;;;2.15;0.93;;;;;;;;;;5069949;28;20044;-72
2022/03/27 04:52:31;;;;;;;1.60;0.90;;;;;;;;;;5087874;28;20048;-72
2022/03/27 04:54:58;;;;;;;2.90;1.00;;;;;;;;;;5087962;28;20062;-72
2022/03/27 04:57:25;;;;;;;1.45;0.95;;;;;;;;;;5088115;28;20052;-72
2022/03/27 04:59:53;;;;;;;1.10;0.70;;;;;;;;;;5070081;28;20059;-72
2022/03/27 05:02:19;;;;;;;1.48;0.70;;;;;;;;;;5070456;28;20096;-72
2022/03/27 05:04:45;;;;;;;2.35;0.90;;;;;;;;;;5087837;28;20480;-71
2022/03/27 05:07:11;;;;;;;2.63;1.20;;;;;;;;;;5088206;28;20387;-70
2022/03/27 05:09:37;;;;;;;3.40;1.00;;;;;;;;;;5088372;28;20105;-70
2022/03/27 05:12:03;;;;;;;5.40;1.05;;;;;;;;;;5088121;28;20102;-73
2022/03/27 05:14:29;;;;;;;2.35;0.90;;;;;;;;;;5088236;28;20044;-73
2022/03/27 05:16:55;;;;;;;8.68;1.40;;;;;;;;;;5087952;28;20070;-70
2022/03/27 05:19:21;;;;;;;8.10;1.10;;;;;;;;;;5088048;28;20079;-71
2022/03/27 05:21:47;;;;;;;2.47;0.98;;;;;;;;;;5087672;28;20484;-70
2022/03/27 05:24:13;;;;;;;3.92;0.93;;;;;;;;;;5087855;28;20523;-70
2022/03/27 05:26:39;;;;;;;5.47;1.15;;;;;;;;;;5088345;28;20378;-70
2022/03/27 05:29:08;;;;;;;1.98;0.88;;;;;;;;;;5087981;28;20093;-70
2022/03/27 05:31:34;;;;;;;3.80;1.38;;;;;;;;;;5069674;28;20121;-70
2022/03/27 05:34:00;;;;;;;2.28;1.00;;;;;;;;;;5069803;28;20049;-70
2022/03/27 05:36:26;;;;;;;3.15;0.93;;;;;;;;;;5069253;28;20043;-70
2022/03/27 05:38:53;;;;;;;2.72;0.80;;;;;;;;;;5069873;28;20095;-70
2022/03/27 05:41:19;;;;;;;2.40;0.88;;;;;;;;;;5088048;28;20040;-70
2022/03/27 05:43:45;;;;;;;1.88;0.85;;;;;;;;;;5088347;28;20121;-70
2022/03/27 05:46:11;;;;;;;2.90;1.00;;;;;;;;;;5072092;28;20136;-70
2022/03/27 05:48:37;;;;;;;2.55;1.15;;;;;;;;;;5092385;28;20052;-69
2022/03/27 05:51:03;;;;;;;4.90;1.27;;;;;;;;;;5092675;28;20454;-69
2022/03/27 05:53:29;;;;;;;5.15;1.10;;;;;;;;;;5092751;28;20150;-70
2022/03/27 05:55:57;;;;;;;4.93;1.00;;;;;;;;;;5092759;28;20093;-70
2022/03/27 05:58:23;;;;;;;2.28;0.93;;;;;;;;;;5092329;28;20452;-70
2022/03/27 06:00:49;;;;;;;3.65;1.00;;;;;;;;;;5074133;28;20060;-69
2022/03/27 06:03:15;;;;;;;3.53;1.58;;;;;;;;;;5091555;28;20158;-70
2022/03/27 06:05:41;;;;;;;4.78;1.10;;;;;;;;;;5092774;28;20047;-69
2022/03/27 06:08:08;;;;;;;4.82;1.42;;;;;;;;;;5056977;28;20052;-69
2022/03/27 06:10:35;;;;;;;4.35;1.77;;;;;;;;;;5074258;28;20080;-69
2022/03/27 06:13:02;;;;;;;3.33;0.93;;;;;;;;;;5091976;28;20092;-68
2022/03/27 06:15:29;;;;;;;5.15;1.42;;;;;;;;;;5090878;28;20040;-69
2022/03/27 06:17:55;;;;;;;4.60;1.33;;;;;;;;;;5092191;28;20145;-70
2022/03/27 06:20:22;;;;;;;4.15;1.30;;;;;;;;;;5092206;28;20393;-70
2022/03/27 06:22:49;;;;;;;6.30;1.55;;;;;;;;;;5073645;28;20048;-70
2022/03/27 06:25:16;;;;;;;4.70;1.20;;;;;;;;;;5092146;28;20050;-70
2022/03/27 06:27:43;;;;;;;6.53;1.75;;;;;;;;;;5092471;28;20044;-70
2022/03/27 06:30:10;;;;;;;4.63;1.40;;;;;;;;;;5092121;28;20044;-69
2022/03/27 06:32:36;;;;;;;6.60;1.60;;;;;;;;;;5091611;28;20461;-69
2022/03/27 06:35:04;;;;;;;4.93;1.30;;;;;;;;;;5091762;28;20109;-69
2022/03/27 06:37:31;;;;;;;7.20;1.65;;;;;;;;;;5092290;28;20054;-70
2022/03/27 06:39:57;;;;;;;5.55;1.70;;;;;;;;;;5091638;28;20071;-70
2022/03/27 06:42:25;;;;;;;5.80;1.60;;;;;;;;;;5072963;28;20047;-70
2022/03/27 06:44:52;;;;;;;6.07;1.85;;;;;;;;;;5091517;28;20055;-70
2022/03/27 06:47:21;;;;;;;5.88;1.73;;;;;;;;;;5073432;28;20044;-71
2022/03/27 06:49:47;;;;;;;;;;;;;;;;;;5090768;28;20051;-71
2022/03/27 06:52:14;;;;;;;7.10;1.70;;;;;;;;;;5056765;28;19920;-70
2022/03/27 06:54:40;;;;;;;6.10;1.90;;;;;;;;;;5091330;28;20417;-71
2022/03/27 06:57:07;;;;;;;6.97;2.13;;;;;;;;;;5090630;28;20044;-71
2022/03/27 07:03:01;;;;;;;5.50;1.60;;;;;;;;;;5091633;28;20040;-71
2022/03/27 07:05:04;;;;;;;7.30;1.83;;;;;;;;;;5091476;28;20101;-69
2022/03/27 07:07:31;;;;;;;6.55;2.00;;;;;;;;;;5073137;28;20101;-71
2022/03/27 07:09:57;;;;;;;8.40;1.90;;;;;;;;;;5072313;28;20540;-71
2022/03/27 07:12:24;;;;;;;7.45;2.03;;;;;;;;;;5091387;28;20489;-69
2022/03/27 07:14:51;;;;;;;7.20;2.00;;;;;;;;;;5073050;28;20044;-71
2022/03/27 07:17:17;;;;;;;6.28;2.08;;;;;;;;;;5090789;28;20055;-71
2022/03/27 07:19:47;;;;;;;7.80;2.10;;;;;;;;;;5089461;28;20109;-71
2022/03/27 07:22:13;;;;;;;;;;;;;;;;;;5091584;28;20117;-70
2022/03/27 07:24:39;;;;;;;7.28;1.95;;;;;;;;;;5089801;28;20392;-73
2022/03/27 07:27:05;;;;;;;21.90;3.75;;;;;;;;;;5090760;28;20117;-72
2022/03/27 07:29:32;;;;;;;9.48;1.98;;;;;;;;;;5091314;28;20497;-72
2022/03/27 07:31:58;;;;;;;9.80;1.95;;;;;;;;;;5072135;28;20145;-71
2022/03/27 07:34:25;;;;;;;9.63;2.50;;;;;;;;;;5086492;28;20056;-70
2022/03/27 07:36:51;;;;;;;6.65;2.05;;;;;;;;;;5070608;28;20080;-71
2022/03/27 07:39:17;;;;;;;8.75;1.83;;;;;;;;;;5068586;28;20048;-71
2022/03/27 07:41:43;;;;;;;6.45;2.10;;;;;;;;;;5069384;28;20242;-71
2022/03/27 07:44:09;;;;;;;6.47;2.00;;;;;;;;;;5069204;28;20053;-71
2022/03/27 07:46:35;;;;;;;8.27;2.20;;;;;;;;;;5068889;28;20059;-70
2022/03/27 07:49:02;;;;;;;8.40;2.30;;;;;;;;;;5068364;28;20109;-73
2022/03/27 07:51:28;;;;;;;12.38;2.80;;;;;;;;;;5052654;28;20121;-73
2022/03/27 07:53:54;;;;;;;9.77;2.17;;;;;;;;;;5052198;28;20045;-72
2022/03/27 07:56:20;;;;;;;9.35;2.30;;;;;;;;;;5052127;28;20048;-73
2022/03/27 07:58:47;;;;;;;8.77;2.42;;;;;;;;;;5070064;28;20413;-72
2022/03/27 08:01:15;;;;;;;7.97;2.03;;;;;;;;;;5067746;28;20059;-72
2022/03/27 08:03:41;;;;;;;9.65;2.53;;;;;;;;;;5051670;28;20048;-71
2022/03/27 08:06:08;;;;;;;9.25;2.63;;;;;;;;;;5067834;28;20559;-69
2022/03/27 08:08:34;;;;;;;11.55;2.55;;;;;;;;;;5067671;28;20063;-70
2022/03/27 08:11:00;;;;;;;11.48;2.47;;;;;;;;;;5068114;28;20063;-70
2022/03/27 08:13:27;;;;;;;12.32;2.33;;;;;;;;;;5067593;28;20379;-69
2022/03/27 08:15:54;;;;;;;7.97;2.05;;;;;;;;;;5050934;28;20056;-70
2022/03/27 08:18:20;;;;;;;8.63;2.50;;;;;;;;;;5068866;28;20060;-70
2022/03/27 08:20:46;;;;;;;8.50;2.50;;;;;;;;;;5069180;28;20108;-70
2022/03/27 08:23:13;;;;;;;10.05;2.50;;;;;;;;;;5067301;28;20045;-69
2022/03/27 08:28:24;;;;;;;7.32;2.33;;;;;;;;;;5068684;28;20059;-70
2022/03/27 08:30:50;;;;;;;9.18;2.13;;;;;;;;;;5067485;28;20125;-69
2022/03/27 08:33:17;;;;;;;7.75;2.17;;;;;;;;;;5069324;28;20416;-70
2022/03/27 08:35:43;;;;;;;8.30;2.50;;;;;;;;;;5088892;28;20506;-69
2022/03/27 08:38:13;;;;;;;13.02;3.28;;;;;;;;;;5088154;28;20378;-75
2022/03/27 08:40:40;;;;;;;11.05;2.58;;;;;;;;;;5070588;28;20127;-72
2022/03/27 08:43:13;;;;;;;12.23;2.50;;;;;;;;;;5088794;28;20039;-73
2022/03/27 08:45:39;;;;;;;13.98;2.30;;;;;;;;;;5088817;28;20109;-74
2022/03/27 08:48:06;;;;;;;14.90;3.25;;;;;;;;;;5069837;28;20040;-73
2022/03/27 08:50:34;;;;;;;15.48;4.80;;;;;;;;;;5088847;28;20851;-76
2022/03/27 08:53:00;;;;;;;20.00;3.40;;;;;;;;;;5069913;28;20394;-70
2022/03/27 08:55:32;;;;;;;10.60;2.38;;;;;;;;;;5086008;28;20503;-73
2022/03/27 08:58:00;;;;;;;10.20;2.45;;;;;;;;;;5068292;28;20097;-71
2022/03/27 09:00:36;;;;;;;8.77;2.25;;;;;;;;;;5085431;28;20051;-70
2022/03/27 09:03:03;;;;;;;10.23;2.47;;;;;;;;;;5082741;28;20523;-70
2022/03/27 09:05:29;;;;;;;8.80;2.40;;;;;;;;;;5069591;28;20510;-70
2022/03/27 09:07:56;;;;;;;10.18;2.50;;;;;;;;;;5088557;28;20059;-71
2022/03/27 09:10:24;;;;;;;8.73;2.30;;;;;;;;;;5086454;28;20078;-70
2022/03/27 09:12:51;;;;;;;8.70;2.28;;;;;;;;;;5069779;28;20375;-71
2022/03/27 09:15:19;;;;;;;10.13;2.20;;;;;;;;;;5087870;28;20051;-69
2022/03/27 09:17:59;;;;;;;7.93;2.83;;;;;;;;;;5088174;28;20047;-70
2022/03/27 09:20:51;;;;;;;8.73;2.92;;;;;;;;;;5069437;28;20039;-68
2022/03/27 09:23:21;;;;;;;7.85;2.67;;;;;;;;;;5074105;28;20535;-71
2022/03/27 09:25:52;;;;;;;6.60;2.50;;;;;;;;;;5069427;28;20066;-71
2022/03/27 09:28:21;;;;;;;9.70;2.70;;;;;;;;;;5087476;28;20052;-69
2022/03/27 09:30:47;;;;;;;6.60;1.98;;;;;;;;;;5087627;28;20051;-73
2022/03/27 09:33:30;;;;;;;7.80;2.30;;;;;;;;;;5068862;28;20036;-72
2022/03/27 09:36:07;;;;;;;8.90;2.15;;;;;;;;;;5088407;28;20063;-70
2022/03/27 09:38:33;;;;;;;8.05;2.55;;;;;;;;;;5069155;28;20391;-71
2022/03/27 09:40:59;;;;;;;7.20;2.35;;;;;;;;;;5069301;28;20028;-71
2022/03/27 09:43:25;;;;;;;11.23;3.30;;;;;;;;;;5087267;28;20086;-71
2022/03/27 09:45:59;;;;;;;8.85;3.03;;;;;;;;;;5051798;28;20516;-71
2022/03/27 09:48:26;;;;;;;7.32;2.00;;;;;;;;;;5087161;28;20055;-72
2022/03/27 09:50:53;;;;;;;8.05;2.40;;;;;;;;;;5086540;28;20040;-71
2022/03/27 09:53:22;;;;;;;7.80;2.17;;;;;;;;;;5065695;28;20055;-78
2022/03/27 09:55:52;;;;;;;9.82;2.85;;;;;;;;;;5070673;28;20044;-74
2022/03/27 09:58:32;;;;;;;9.30;2.58;;;;;;;;;;5086794;28;20044;-71
2022/03/27 10:01:08;;;;;;;10.30;2.88;;;;;;;;;;5068310;28;20600;-71
2022/03/27 10:03:34;;;;;;;7.78;2.35;;;;;;;;;;5068716;28;20134;-73
2022/03/27 10:06:02;;;;;;;8.75;3.08;;;;;;;;;;5052117;28;20367;-70
2022/03/27 10:08:28;;;;;;;15.23;4.93;;;;;;;;;;5086745;28;20143;-72
2022/03/27 10:10:55;;;;;;;14.68;5.60;;;;;;;;;;5086367;28;20040;-71
2022/03/27 10:13:25;;;;;;;21.02;8.32;;;;;;;;;;5051442;28;20044;-72
2022/03/27 10:15:54;;;;;;;21.77;14.20;;;;;;;;;;5068286;28;20036;-73
2022/03/27 10:18:21;;;;;;;28.67;16.15;;;;;;;;;;5067526;28;20056;-73
2022/03/27 10:20:50;;;;;;;27.48;16.17;;;;;;;;;;5086578;28;20047;-75
2022/03/27 10:23:35;;;;;;;27.77;16.38;;;;;;;;;;5051703;28;20084;-73
2022/03/27 10:26:05;;;;;;;26.42;15.63;;;;;;;;;;5085633;28;20036;-70
2022/03/27 10:28:33;;;;;;;24.33;13.60;;;;;;;;;;5067730;28;20047;-73
2022/03/27 10:30:59;;;;;;;28.05;14.15;;;;;;;;;;5052145;28;20048;-72
2022/03/27 10:33:27;;;;;;;22.85;13.32;;;;;;;;;;5073071;28;20051;-72
2022/03/27 10:35:58;;;;;;;25.58;14.70;;;;;;;;;;5073723;28;20533;-72
2022/03/27 10:38:28;;;;;;;27.23;14.20;;;;;;;;;;5091505;28;20043;-71
2022/03/27 10:41:13;;;;;;;23.63;12.77;;;;;;;;;;5091545;28;20043;-73
2022/03/27 10:43:49;;;;;;;24.20;12.75;;;;;;;;;;5055891;28;20044;-69
2022/03/27 10:46:21;;;;;;;26.08;12.80;;;;;;;;;;5091328;28;20048;-71
2022/03/27 10:48:48;;;;;;;27.98;11.77;;;;;;;;;;5056886;28;20131;-73
2022/03/27 10:51:36;;;;;;;25.60;11.40;;;;;;;;;;5090409;28;20461;-68
2022/03/27 10:54:02;;;;;;;25.58;12.73;;;;;;;;;;5091731;28;20112;-68
2022/03/27 10:56:36;;;;;;;24.05;12.80;;;;;;;;;;5073369;28;20214;-66
2022/03/27 10:59:10;;;;;;;21.30;11.80;;;;;;;;;;5090777;28;20439;-68
2022/03/27 11:01:37;;;;;;;26.42;12.13;;;;;;;;;;5073085;28;20127;-72
2022/03/27 11:04:08;;;;;;;24.77;11.20;;;;;;;;;;5073263;28;20109;-69
2022/03/27 11:06:44;;;;;;;22.92;12.52;;;;;;;;;;5091624;28;20127;-67
2022/03/27 11:09:30;;;;;;;24.92;11.52;;;;;;;;;;5090480;28;20043;-68
2022/03/27 11:11:57;;;;;;;21.50;10.05;;;;;;;;;;5090780;28;20089;-69
2022/03/27 11:15:02;;;;;;;22.33;11.55;;;;;;;;;;5091182;28;20056;-71
2022/03/27 11:17:37;;;;;;;20.67;11.23;;;;;;;;;;5012053;28;20053;-69
2022/03/27 11:20:07;;;;;;;20.35;10.50;;;;;;;;;;5028068;28;20045;-66
2022/03/27 11:22:53;;;;;;;19.20;10.48;;;;;;;;;;5063047;28;20055;-66
2022/03/27 11:25:26;;;;;;;21.30;10.88;;;;;;;;;;5090826;28;20040;-67
2022/03/27 11:27:56;;;;;;;19.23;10.05;;;;;;;;;;5090893;28;20131;-68
2022/03/27 11:30:22;;;;;;;20.00;10.32;;;;;;;;;;5090781;28;20055;-68
2022/03/27 11:33:07;;;;;;;21.73;10.02;;;;;;;;;;5050750;28;20045;-67
2022/03/27 11:35:33;;;;;;;21.40;9.50;;;;;;;;;;5090171;28;20075;-70
2022/03/27 11:38:18;;;;;;;17.73;8.90;;;;;;;;;;5072345;28;20114;-67
2022/03/27 11:40:44;;;;;;;17.08;8.60;;;;;;;;;;5090546;28;20486;-66
2022/03/27 11:43:29;;;;;;;19.88;9.57;;;;;;;;;;5054992;28;20044;-67
2022/03/27 11:45:59;;;;;;;19.38;8.30;;;;;;;;;;5090404;28;20102;-68
2022/03/27 11:48:25;;;;;;;21.20;8.55;;;;;;;;;;5055058;28;20040;-68
2022/03/27 11:50:54;;;;;;;18.73;8.13;;;;;;;;;;5090388;28;20055;-69
2022/03/27 11:53:34;;;;;;;19.13;7.57;;;;;;;;;;5090000;28;20080;-69
2022/03/27 11:56:08;;;;;;;16.35;7.18;;;;;;;;;;5089952;28;20410;-67
2022/03/27 11:58:35;;;;;;;16.08;7.60;;;;;;;;;;5089395;28;20040;-69
2022/03/27 12:01:04;;;;;;;14.00;6.57;;;;;;;;;;5089812;28;20044;-70
2022/03/27 12:03:31;;;;;;;15.48;6.43;;;;;;;;;;5090295;28;20583;-68
2022/03/27 12:06:04;;;;;;;14.77;6.35;;;;;;;;;;5089868;28;20048;-69
2022/03/27 12:08:41;;;;;;;15.52;6.35;;;;;;;;;;5089674;28;20040;-69
2022/03/27 12:11:08;;;;;;;12.00;5.97;;;;;;;;;;5071739;28;20044;-69
2022/03/27 12:13:36;;;;;;;14.32;5.85;;;;;;;;;;5089622;28;20040;-69
2022/03/27 12:16:03;;;;;;;13.30;5.88;;;;;;;;;;5070959;28;20051;-70
2022/03/27 12:18:33;;;;;;;12.40;5.40;;;;;;;;;;5089866;28;20052;-69
2022/03/27 12:21:01;;;;;;;13.07;5.82;;;;;;;;;;5089071;28;20052;-71
2022/03/27 12:23:28;;;;;;;10.60;4.90;;;;;;;;;;5089619;28;20050;-69
2022/03/27 12:25:58;;;;;;;13.82;5.32;;;;;;;;;;5071817;28;20048;-70
2022/03/27 12:31:23;;;;;;;11.63;4.45;;;;;;;;;;5087391;28;20048;-71
2022/03/27 12:33:50;;;;;;;10.30;4.40;;;;;;;;;;5069189;28;20063;-71
2022/03/27 12:36:16;;;;;;;9.10;4.20;;;;;;;;;;5088670;28;20462;-68
2022/03/27 12:38:43;;;;;;;9.40;4.40;;;;;;;;;;5070639;28;20044;-70
2022/03/27 12:41:12;;;;;;;10.90;4.05;;;;;;;;;;5089667;28;20362;-66
2022/03/27 12:43:55;;;;;;;7.63;3.63;;;;;;;;;;5049237;28;20154;-69
2022/03/27 12:46:22;;;;;;;8.18;3.63;;;;;;;;;;5089319;28;20506;-69
2022/03/27 12:49:05;;;;;;;11.57;4.30;;;;;;;;;;5045563;28;20044;-69
2022/03/27 12:51:31;;;;;;;11.27;4.18;;;;;;;;;;5051327;28;20048;-69
2022/03/27 12:54:07;;;;;;;12.02;3.80;;;;;;;;;;5074939;28;20043;-67
2022/03/27 12:56:34;;;;;;;11.07;4.28;;;;;;;;;;5089004;28;20607;-69
2022/03/27 12:59:18;;;;;;;9.65;3.60;;;;;;;;;;5087769;28;20090;-69
2022/03/27 13:01:44;;;;;;;9.18;3.40;;;;;;;;;;5038133;28;20055;-67
2022/03/27 13:04:10;;;;;;;12.68;3.67;;;;;;;;;;5056043;28;20147;-68
2022/03/27 13:06:44;;;;;;;9.88;3.80;;;;;;;;;;5045721;28;20048;-69
2022/03/27 13:09:12;;;;;;;9.77;3.67;;;;;;;;;;5038422;28;20136;-69
2022/03/27 13:11:40;;;;;;;12.13;3.75;;;;;;;;;;5067339;28;20043;-69
2022/03/27 13:14:06;;;;;;;9.00;3.45;;;;;;;;;;5087814;28;20047;-70
2022/03/27 13:16:41;;;;;;;11.13;4.00;;;;;;;;;;5087857;28;20136;-68
2022/03/27 13:19:30;;;;;;;10.05;3.50;;;;;;;;;;5088943;28;20048;-71
2022/03/27 13:21:57;;;;;;;8.65;3.03;;;;;;;;;;5086459;28;20035;-72
2022/03/27 13:24:28;;;;;;;12.85;4.05;;;;;;;;;;5070280;28;20043;-71
2022/03/27 13:27:00;;;;;;;8.18;3.13;;;;;;;;;;5070089;28;20051;-68
2022/03/27 13:29:26;;;;;;;9.45;3.10;;;;;;;;;;5068765;28;20047;-68
2022/03/27 13:31:53;;;;;;;11.68;3.50;;;;;;;;;;5052465;28;20047;-69
2022/03/27 13:34:19;;;;;;;10.05;3.05;;;;;;;;;;5067091;28;20398;-69
2022/03/27 13:36:49;;;;;;;9.50;3.10;;;;;;;;;;5084391;28;20047;-69
2022/03/27 13:39:16;;;;;;;9.50;2.95;;;;;;;;;;5086658;28;20040;-65
2022/03/27 13:44:28;;;;;;;12.90;3.47;;;;;;;;;;5084414;28;20498;-69
2022/03/27 13:46:54;;;;;;;19.13;3.78;;;;;;;;;;5066708;28;20122;-66
2022/03/27 13:49:21;;;;;;;16.75;3.10;;;;;;;;;;5051472;28;20835;-66
2022/03/27 13:51:47;;;;;;;14.95;3.40;;;;;;;;;;5066565;28;20097;-68
2022/03/27 13:54:14;;;;;;;13.73;3.80;;;;;;;;;;5068264;28;20047;-67
2022/03/27 13:56:40;;;;;;;12.85;3.53;;;;;;;;;;5068872;28;20047;-67
2022/03/27 13:59:11;;;;;;;12.90;3.05;;;;;;;;;;5068572;28;20048;-67
2022/03/27 14:01:40;;;;;;;14.35;3.20;;;;;;;;;;5068292;28;20037;-66
2022/03/27 14:04:09;;;;;;;11.13;3.05;;;;;;;;;;5086269;28;20225;-68
2022/03/27 14:06:35;;;;;;;14.00;3.08;;;;;;;;;;5087375;28;20085;-67
2022/03/27 14:09:01;;;;;;;11.50;2.92;;;;;;;;;;5071983;28;20461;-67
2022/03/27 14:11:28;;;;;;;8.77;2.80;;;;;;;;;;5072021;28;20090;-69
2022/03/27 14:13:54;;;;;;;8.57;3.30;;;;;;;;;;5089560;28;20036;-67
2022/03/27 14:16:20;;;;;;;7.70;2.63;;;;;;;;;;5089721;28;20044;-67
2022/03/27 14:18:46;;;;;;;9.55;2.75;;;;;;;;;;5089671;28;20036;-68
2022/03/27 14:21:12;;;;;;;9.77;3.25;;;;;;;;;;5089652;28;20079;-67
2022/03/27 14:23:38;;;;;;;11.50;3.20;;;;;;;;;;5089233;28;20043;-67
2022/03/27 14:26:05;;;;;;;8.98;2.92;;;;;;;;;;5054571;28;20131;-67
2022/03/27 14:28:31;;;;;;;13.07;3.45;;;;;;;;;;5072018;28;20040;-67
2022/03/27 14:30:58;;;;;;;8.77;3.00;;;;;;;;;;5070987;28;20052;-67
2022/03/27 14:33:24;;;;;;;10.23;2.85;;;;;;;;;;5089641;28;20048;-67
2022/03/27 14:35:51;;;;;;;8.52;2.78;;;;;;;;;;5090132;28;20565;-67
2022/03/27 14:38:17;;;;;;;7.78;2.70;;;;;;;;;;5071823;28;20040;-66
2022/03/27 14:40:43;;;;;;;12.40;2.67;;;;;;;;;;5088754;28;20098;-67
2022/03/27 14:43:09;;;;;;;8.88;2.78;;;;;;;;;;5089490;28;20032;-67
2022/03/27 14:45:35;;;;;;;10.65;2.38;;;;;;;;;;5090035;28;20057;-68
2022/03/27 14:48:02;;;;;;;10.85;2.78;;;;;;;;;;5090018;28;20107;-68
2022/03/27 14:50:28;;;;;;;9.07;2.65;;;;;;;;;;5070991;28;20043;-68
2022/03/27 14:52:54;;;;;;;9.38;2.83;;;;;;;;;;5089527;28;20047;-68
2022/03/27 14:58:09;;;;;;;10.70;2.53;;;;;;;;;;5089901;28;21924;-68